createdAt,value
2023-02-28T00:00:37.049Z,7.75
2023-02-28T00:03:04.550Z,8.02
2023-02-28T00:05:31.707Z,10.38
2023-02-28T00:07:58.161Z,8.18
2023-02-28T00:10:32.350Z,7.93
2023-02-28T00:13:05.499Z,5.38
2023-02-28T00:15:32.576Z,9.73
2023-02-28T00:17:59.057Z,10.20
2023-02-28T00:20:25.905Z,7.68
2023-02-28T00:22:53.631Z,7.93
2023-02-28T00:25:23.561Z,6.30
2023-02-28T00:27:50.628Z,8.05
2023-02-28T00:30:19.617Z,7.13
2023-02-28T00:32:46.340Z,7.38
2023-02-28T00:35:13.675Z,5.55
2023-02-28T00:37:40.241Z,6.75
2023-02-28T00:40:07.698Z,7.10
2023-02-28T00:42:35.943Z,8.98
2023-02-28T00:45:04.660Z,6.55
2023-02-28T00:47:31.813Z,7.35
2023-02-28T00:49:58.484Z,6.35
2023-02-28T00:52:25.045Z,7.70
2023-02-28T00:54:51.457Z,4.72
2023-02-28T00:57:17.879Z,6.57
2023-02-28T00:59:44.344Z,4.97
2023-02-28T01:02:10.898Z,5.32
2023-02-28T01:04:37.392Z,4.22
2023-02-28T01:07:03.921Z,8.80
2023-02-28T01:09:30.385Z,5.57
2023-02-28T01:11:56.800Z,6.22
2023-02-28T01:14:23.378Z,5.07
2023-02-28T01:16:49.806Z,6.00
2023-02-28T01:19:16.720Z,8.10
2023-02-28T01:21:43.189Z,10.43
2023-02-28T01:24:09.667Z,7.45
2023-02-28T01:26:36.177Z,8.10
2023-02-28T01:29:02.826Z,6.63
2023-02-28T01:31:29.516Z,7.82
2023-02-28T01:33:56.278Z,7.32
2023-02-28T01:36:25.132Z,8.00
2023-02-28T01:38:52.449Z,6.30
2023-02-28T01:41:28.489Z,5.70
2023-02-28T01:43:56.827Z,5.35
2023-02-28T01:46:23.745Z,5.18
2023-02-28T01:49:20.881Z,4.82
2023-02-28T01:51:55.652Z,6.55
2023-02-28T01:54:26.797Z,7.25
2023-02-28T01:59:30.734Z,7.75
2023-02-28T02:01:57.301Z,6.07
2023-02-28T02:04:28.171Z,9.15
2023-02-28T02:06:55.800Z,6.50
2023-02-28T02:09:22.213Z,8.75
2023-02-28T02:11:48.735Z,8.20
2023-02-28T02:14:24.143Z,7.03
2023-02-28T02:17:05.702Z,8.63
2023-02-28T02:19:49.032Z,10.35
2023-02-28T02:22:21.765Z,6.40
2023-02-28T02:24:48.485Z,6.28
2023-02-28T02:27:35.465Z,6.25
2023-02-28T02:30:33.200Z,3.50
2023-02-28T02:33:21.705Z,2.78
2023-02-28T02:36:06.544Z,2.78
2023-02-28T02:38:37.711Z,3.13
2023-02-28T02:41:17.993Z,4.20
2023-02-28T02:44:12.165Z,4.43
2023-02-28T02:46:43.794Z,10.27
2023-02-28T02:49:16.976Z,3.45
2023-02-28T02:51:45.317Z,3.38
2023-02-28T02:54:34.560Z,4.95
2023-02-28T02:57:09.543Z,5.55
2023-02-28T02:59:39.401Z,3.83
2023-02-28T03:02:10.434Z,3.63
2023-02-28T03:04:44.393Z,3.22
2023-02-28T03:07:10.841Z,6.53
2023-02-28T03:09:37.273Z,5.45
2023-02-28T03:12:04.575Z,4.63
2023-02-28T03:14:49.022Z,3.92
2023-02-28T03:17:21.547Z,6.30
2023-02-28T03:19:55.713Z,5.00
2023-02-28T03:22:31.396Z,5.50
2023-02-28T03:25:21.919Z,7.32
2023-02-28T03:27:54.022Z,5.95
2023-02-28T03:30:28.375Z,7.72
2023-02-28T03:32:57.750Z,12.57
2023-02-28T03:35:33.643Z,6.65
2023-02-28T03:38:20.422Z,8.70
2023-02-28T03:40:52.260Z,7.55
2023-02-28T03:43:30.605Z,8.07
2023-02-28T03:45:58.743Z,7.45
2023-02-28T03:49:06.529Z,6.20
2023-02-28T03:51:34.623Z,6.57
2023-02-28T03:54:08.279Z,7.05
2023-02-28T03:56:58.180Z,8.75
2023-02-28T04:01:59.418Z,6.07
2023-02-28T04:04:26.398Z,7.93
2023-02-28T04:06:54.114Z,10.38
2023-02-28T04:09:20.604Z,8.40
2023-02-28T04:11:54.378Z,8.70
2023-02-28T04:14:20.783Z,9.88
2023-02-28T04:16:48.004Z,9.05
2023-02-28T04:19:15.379Z,15.77
2023-02-28T04:21:44.207Z,10.73
2023-02-28T04:24:17.078Z,8.00
2023-02-28T04:26:49.120Z,7.93
2023-02-28T04:29:23.853Z,7.05
2023-02-28T04:31:50.709Z,9.13
2023-02-28T04:34:17.730Z,7.65
2023-02-28T04:36:44.176Z,8.38
2023-02-28T04:39:10.887Z,7.53
2023-02-28T04:41:37.404Z,10.27
2023-02-28T04:44:04.191Z,5.85
2023-02-28T04:46:31.439Z,7.72
2023-02-28T04:48:58.019Z,10.48
2023-02-28T04:51:24.457Z,7.40
2023-02-28T04:53:51.690Z,7.93
2023-02-28T04:56:19.572Z,11.93
2023-02-28T04:58:46.388Z,6.20
2023-02-28T05:01:28.274Z,9.60
2023-02-28T05:03:57.108Z,6.95
2023-02-28T05:06:26.009Z,7.38
2023-02-28T05:08:53.144Z,7.30
2023-02-28T05:11:25.378Z,8.52
2023-02-28T05:13:53.222Z,9.55
2023-02-28T05:16:20.665Z,7.03
2023-02-28T05:18:47.982Z,9.07
2023-02-28T05:21:38.948Z,6.97
2023-02-28T05:24:09.882Z,5.78
2023-02-28T05:26:38.629Z,6.55
2023-02-28T05:29:06.008Z,8.30
2023-02-28T05:31:33.320Z,7.65
2023-02-28T05:34:00.097Z,6.68
2023-02-28T05:36:28.019Z,4.78
2023-02-28T05:38:54.493Z,5.25
2023-02-28T05:41:21.497Z,6.43
2023-02-28T05:43:48.914Z,8.80
2023-02-28T05:46:16.254Z,5.65
2023-02-28T05:48:43.801Z,8.32
2023-02-28T05:51:10.708Z,11.05
2023-02-28T05:53:37.290Z,7.63
2023-02-28T05:56:04.689Z,4.82
2023-02-28T05:58:32.049Z,8.25
2023-02-28T06:01:21.640Z,4.55
2023-02-28T06:03:48.075Z,5.80
2023-02-28T06:06:14.490Z,4.80
2023-02-28T06:08:40.900Z,7.78
2023-02-28T06:11:07.765Z,5.50
2023-02-28T06:13:34.218Z,4.55
2023-02-28T06:16:03.502Z,4.70
2023-02-28T06:18:30.067Z,8.00
2023-02-28T06:20:56.809Z,7.35
2023-02-28T06:23:23.593Z,8.85
2023-02-28T06:25:50.607Z,9.10
2023-02-28T06:28:17.358Z,6.10
2023-02-28T06:30:46.380Z,5.95
2023-02-28T06:33:13.016Z,9.32
2023-02-28T06:35:39.491Z,6.43
2023-02-28T06:38:06.088Z,7.13
2023-02-28T06:40:36.688Z,10.88
2023-02-28T06:43:04.073Z,10.65
2023-02-28T06:45:30.719Z,5.45
2023-02-28T06:47:57.247Z,5.85
2023-02-28T06:50:23.690Z,10.63
2023-02-28T06:52:54.861Z,8.68
2023-02-28T06:57:47.708Z,7.45
2023-02-28T07:00:14.902Z,13.57
2023-02-28T07:02:41.344Z,9.38
2023-02-28T07:05:08.175Z,9.68
2023-02-28T07:07:35.186Z,7.10
2023-02-28T07:10:01.630Z,12.32
2023-02-28T07:12:28.085Z,7.38
2023-02-28T07:14:56.833Z,5.82
2023-02-28T07:17:23.323Z,7.15
2023-02-28T07:19:49.773Z,7.05
2023-02-28T07:22:16.183Z,6.43
2023-02-28T07:24:42.705Z,8.85
2023-02-28T07:27:09.183Z,5.93
2023-02-28T07:29:35.601Z,8.38
2023-02-28T07:32:02.109Z,6.70
2023-02-28T07:34:28.596Z,6.00
2023-02-28T07:36:55.524Z,5.72
2023-02-28T07:39:23.732Z,8.32
2023-02-28T07:41:50.213Z,5.35
2023-02-28T07:44:17.243Z,6.40
2023-02-28T07:46:43.834Z,6.80
2023-02-28T07:49:10.315Z,5.63
2023-02-28T07:51:36.812Z,5.43
2023-02-28T07:54:04.105Z,9.32
2023-02-28T07:56:30.899Z,6.05
2023-02-28T07:58:57.534Z,9.60
2023-02-28T08:01:24.094Z,7.90
2023-02-28T08:03:50.780Z,6.75
2023-02-28T08:06:23.370Z,7.63
2023-02-28T08:08:50.370Z,8.55
2023-02-28T08:11:18.017Z,8.52
2023-02-28T08:13:45.503Z,6.30
2023-02-28T08:16:16.462Z,5.07
2023-02-28T08:18:42.956Z,5.32
2023-02-28T08:21:11.102Z,7.18
2023-02-28T08:23:37.844Z,4.25
2023-02-28T08:26:04.501Z,5.35
2023-02-28T08:28:31.155Z,4.72
2023-02-28T08:30:57.758Z,6.22
2023-02-28T08:33:25.120Z,6.63
2023-02-28T08:35:55.831Z,4.07
2023-02-28T08:38:23.390Z,3.67
2023-02-28T08:40:50.257Z,2.95
2023-02-28T08:43:16.713Z,4.93
2023-02-28T08:45:43.191Z,5.15
2023-02-28T08:48:09.689Z,4.90
2023-02-28T08:50:36.120Z,3.80
2023-02-28T08:53:02.544Z,4.05
2023-02-28T08:55:29.079Z,3.90
2023-02-28T08:57:55.899Z,3.65
2023-02-28T09:00:23.022Z,4.05
2023-02-28T09:02:49.536Z,3.47
2023-02-28T09:05:16.104Z,6.25
2023-02-28T09:07:42.734Z,3.47
2023-02-28T09:10:10.710Z,4.18
2023-02-28T09:12:37.227Z,4.13
2023-02-28T09:15:04.643Z,3.70
2023-02-28T09:17:31.356Z,2.95
2023-02-28T09:19:58.206Z,3.13
2023-02-28T09:22:25.157Z,3.25
2023-02-28T09:24:51.592Z,3.40
2023-02-28T09:27:18.093Z,3.45
2023-02-28T09:29:44.620Z,3.63
2023-02-28T09:32:11.193Z,4.72
2023-02-28T09:34:38.468Z,2.30
2023-02-28T09:37:05.586Z,3.42
2023-02-28T09:39:32.648Z,3.80
2023-02-28T09:41:59.495Z,2.88
2023-02-28T09:44:38.102Z,3.72
2023-02-28T09:47:26.360Z,3.10
2023-02-28T09:49:53.004Z,3.42
2023-02-28T09:52:24.596Z,2.90
2023-02-28T09:54:51.047Z,3.67
2023-02-28T09:57:23.483Z,3.35
2023-02-28T10:00:14.556Z,3.13
2023-02-28T10:02:53.181Z,3.03
2023-02-28T10:05:32.561Z,3.53
2023-02-28T10:08:05.992Z,3.97
2023-02-28T10:10:46.764Z,4.88
2023-02-28T10:13:24.265Z,13.98
2023-02-28T10:15:56.336Z,8.15
2023-02-28T10:18:27.558Z,5.55
2023-02-28T10:20:56.710Z,5.20
2023-02-28T10:23:35.873Z,7.40
2023-02-28T10:26:13.602Z,3.97
2023-02-28T10:28:40.641Z,3.22
2023-02-28T10:31:17.702Z,4.75
2023-02-28T10:33:44.628Z,4.60
2023-02-28T10:36:15.985Z,3.35
2023-02-28T10:38:42.432Z,3.30
2023-02-28T10:41:10.090Z,3.38
2023-02-28T10:43:38.798Z,3.40
2023-02-28T10:46:16.305Z,4.13
2023-02-28T10:48:46.730Z,4.18
2023-02-28T10:51:20.015Z,2.63
2023-02-28T10:54:00.772Z,5.70
2023-02-28T10:56:30.280Z,3.83
2023-02-28T10:59:01.576Z,3.92
2023-02-28T11:01:31.127Z,4.80
2023-02-28T11:03:58.408Z,3.95
2023-02-28T11:06:30.877Z,4.25
2023-02-28T11:09:18.952Z,6.97
2023-02-28T11:11:48.210Z,4.50
2023-02-28T11:14:28.756Z,5.00
2023-02-28T11:17:00.005Z,4.45
2023-02-28T11:19:31.981Z,4.68
2023-02-28T11:22:01.909Z,3.53
2023-02-28T11:24:32.989Z,5.15
2023-02-28T11:26:59.481Z,4.35
2023-02-28T11:29:31.818Z,3.05
2023-02-28T11:32:05.039Z,3.13
2023-02-28T11:34:32.280Z,2.65
2023-02-28T11:37:00.880Z,3.45
2023-02-28T11:39:27.765Z,3.75
2023-02-28T11:42:37.329Z,4.28
2023-02-28T11:45:20.782Z,4.85
2023-02-28T11:48:11.200Z,3.65
2023-02-28T11:50:57.906Z,3.95
2023-02-28T11:53:53.121Z,4.25
2023-02-28T11:56:31.737Z,7.93
2023-02-28T11:59:13.517Z,3.28
2023-02-28T12:01:48.214Z,5.68
2023-02-28T12:04:39.466Z,3.78
2023-02-28T12:07:18.206Z,3.83
2023-02-28T12:10:11.354Z,8.20
2023-02-28T12:12:43.349Z,9.25
2023-02-28T12:15:25.125Z,18.50
2023-02-28T12:18:08.937Z,3.85
2023-02-28T12:21:02.723Z,5.03
2023-02-28T12:24:01.363Z,3.88
2023-02-28T12:26:37.314Z,3.75
2023-02-28T12:29:25.162Z,4.07
2023-02-28T12:32:03.029Z,4.25
2023-02-28T12:34:37.124Z,5.05
2023-02-28T12:37:11.124Z,3.92
2023-02-28T12:39:50.299Z,4.88
2023-02-28T12:42:29.724Z,4.18
2023-02-28T12:45:10.294Z,5.68
2023-02-28T12:47:39.187Z,4.30
2023-02-28T12:50:09.047Z,4.15
2023-02-28T12:52:53.375Z,3.47
2023-02-28T12:55:32.923Z,4.93
2023-02-28T12:58:17.788Z,4.03
2023-02-28T13:01:15.554Z,4.30
2023-02-28T13:03:59.279Z,3.95
2023-02-28T13:06:44.468Z,4.38
2023-02-28T13:09:16.513Z,4.07
2023-02-28T13:11:52.042Z,4.13
2023-02-28T13:14:44.872Z,4.00
2023-02-28T13:17:14.232Z,7.68
2023-02-28T13:19:52.611Z,4.57
2023-02-28T13:22:40.231Z,4.53
2023-02-28T13:25:34.826Z,4.53
2023-02-28T13:28:05.160Z,3.78
2023-02-28T13:30:50.626Z,4.03
2023-02-28T13:33:29.663Z,4.82
2023-02-28T13:36:10.424Z,4.63
2023-02-28T13:38:42.638Z,5.78
2023-02-28T13:41:36.946Z,4.55
2023-02-28T13:44:12.739Z,5.57
2023-02-28T13:46:48.234Z,4.47
2023-02-28T13:49:26.739Z,4.68
2023-02-28T13:51:56.153Z,5.60
2023-02-28T13:54:48.383Z,9.50
2023-02-28T13:57:30.034Z,6.97
2023-02-28T14:00:09.206Z,7.22
2023-02-28T14:02:57.413Z,5.40
2023-02-28T14:05:27.044Z,8.25
2023-02-28T14:08:05.722Z,5.47
2023-02-28T14:10:42.751Z,6.35
2023-02-28T14:13:13.854Z,6.93
2023-02-28T14:15:45.922Z,6.03
2023-02-28T14:18:29.331Z,6.40
2023-02-28T14:21:04.679Z,7.35
2023-02-28T14:24:14.856Z,6.05
2023-02-28T14:27:04.766Z,7.95
2023-02-28T14:29:37.359Z,7.95
2023-02-28T14:32:15.891Z,7.20
2023-02-28T14:37:38.374Z,5.45
2023-02-28T14:40:05.580Z,5.28
2023-02-28T14:42:38.980Z,3.92
2023-02-28T14:45:06.045Z,6.20
2023-02-28T14:47:34.610Z,6.90
2023-02-28T14:50:02.708Z,6.97
2023-02-28T14:52:32.600Z,3.95
2023-02-28T14:55:08.102Z,5.60
2023-02-28T14:57:41.050Z,8.25
2023-02-28T15:00:27.398Z,6.53
2023-02-28T15:02:55.529Z,6.65
2023-02-28T15:05:31.517Z,4.47
2023-02-28T15:08:16.477Z,5.90
2023-02-28T15:10:52.430Z,4.47
2023-02-28T15:13:20.147Z,6.85
2023-02-28T15:16:04.871Z,7.65
2023-02-28T15:18:41.420Z,3.70
2023-02-28T15:21:17.863Z,4.70
2023-02-28T15:23:50.490Z,4.38
2023-02-28T15:26:20.273Z,4.40
2023-02-28T15:28:47.488Z,4.88
2023-02-28T15:31:28.872Z,4.18
2023-02-28T15:34:03.500Z,3.58
2023-02-28T15:36:34.194Z,4.57
2023-02-28T15:39:10.702Z,5.97
2023-02-28T15:41:42.160Z,4.03
2023-02-28T15:44:20.784Z,6.07
2023-02-28T15:46:58.400Z,5.90
2023-02-28T15:49:25.275Z,4.60
2023-02-28T15:51:53.656Z,5.57
2023-02-28T15:54:31.022Z,4.28
2023-02-28T15:57:05.559Z,4.95
2023-02-28T15:59:32.504Z,6.43
2023-02-28T16:02:11.426Z,3.75
2023-02-28T16:04:38.528Z,4.25
2023-02-28T16:07:13.766Z,6.20
2023-02-28T16:09:40.306Z,4.65
2023-02-28T16:12:06.835Z,5.95
2023-02-28T16:14:33.320Z,5.55
2023-02-28T16:17:09.878Z,5.53
2023-02-28T16:19:36.312Z,7.03
2023-02-28T16:22:02.821Z,7.07
2023-02-28T16:24:29.500Z,4.22
2023-02-28T16:26:57.899Z,5.18
2023-02-28T16:29:29.791Z,5.68
2023-02-28T16:31:56.953Z,6.15
2023-02-28T16:34:29.944Z,5.97
2023-02-28T16:36:56.388Z,5.60
2023-02-28T16:39:22.915Z,4.03
2023-02-28T16:41:51.251Z,5.32
2023-02-28T16:44:37.019Z,5.70
2023-02-28T16:47:05.168Z,6.35
2023-02-28T16:49:31.847Z,6.18
2023-02-28T16:51:58.406Z,4.80
2023-02-28T16:54:24.831Z,4.00
2023-02-28T16:56:51.327Z,6.50
2023-02-28T16:59:23.659Z,5.78
2023-02-28T17:01:50.867Z,7.00
2023-02-28T17:04:17.381Z,9.68
2023-02-28T17:06:43.931Z,6.55
2023-02-28T17:09:24.338Z,4.70
2023-02-28T17:11:51.114Z,5.72
2023-02-28T17:14:17.625Z,4.85
2023-02-28T17:16:44.238Z,7.53
2023-02-28T17:19:13.696Z,7.63
2023-02-28T17:21:42.622Z,5.47
2023-02-28T17:24:14.332Z,5.40
2023-02-28T17:26:43.532Z,6.80
2023-02-28T17:29:18.796Z,3.80
2023-02-28T17:31:45.302Z,7.20
2023-02-28T17:34:12.462Z,5.68
2023-02-28T17:36:39.175Z,5.60
2023-02-28T17:39:11.861Z,7.53
2023-02-28T17:41:38.297Z,8.32
2023-02-28T17:44:04.911Z,10.40
2023-02-28T17:46:32.320Z,9.05
2023-02-28T17:48:59.037Z,5.78
2023-02-28T17:51:25.617Z,6.28
2023-02-28T17:53:53.498Z,7.50
2023-02-28T17:56:23.981Z,4.65
2023-02-28T17:58:52.228Z,6.57
2023-02-28T18:01:19.546Z,7.97
2023-02-28T18:03:45.983Z,6.32
2023-02-28T18:06:25.848Z,5.72
2023-02-28T18:08:52.722Z,6.78
2023-02-28T18:11:20.941Z,6.68
2023-02-28T18:13:50.066Z,5.82
2023-02-28T18:16:17.649Z,6.80
2023-02-28T18:18:44.220Z,5.88
2023-02-28T18:21:12.926Z,8.95
2023-02-28T18:23:47.543Z,5.25
2023-02-28T18:26:19.056Z,5.78
2023-02-28T18:28:46.257Z,8.60
2023-02-28T18:31:17.978Z,7.63
2023-02-28T18:33:47.998Z,8.35
2023-02-28T18:36:14.757Z,7.72
2023-02-28T18:38:41.708Z,7.95
2023-02-28T18:41:08.431Z,8.27
2023-02-28T18:43:38.397Z,16.05
2023-02-28T18:46:06.539Z,12.30
2023-02-28T18:48:33.509Z,6.70
2023-02-28T18:51:06.715Z,11.60
2023-02-28T18:53:35.430Z,12.13
2023-02-28T18:56:02.977Z,10.60
2023-02-28T18:58:30.194Z,8.98
2023-02-28T19:00:56.728Z,8.65
2023-02-28T19:03:23.740Z,8.40
2023-02-28T19:05:54.686Z,8.68
2023-02-28T19:10:47.476Z,10.35
2023-02-28T19:13:14.324Z,7.55
2023-02-28T19:15:40.766Z,7.22
2023-02-28T19:18:07.189Z,10.38
2023-02-28T19:20:33.702Z,9.82
2023-02-28T19:23:01.445Z,10.30
2023-02-28T19:25:28.564Z,7.30
2023-02-28T19:27:56.737Z,7.30
2023-02-28T19:30:23.679Z,9.23
2023-02-28T19:32:50.617Z,9.80
2023-02-28T19:35:17.240Z,6.32
2023-02-28T19:37:43.781Z,7.95
2023-02-28T19:40:13.412Z,6.43
2023-02-28T19:42:39.867Z,7.45
2023-02-28T19:45:06.932Z,8.52
2023-02-28T19:47:33.336Z,8.52
2023-02-28T19:50:06.581Z,6.97
2023-02-28T19:52:34.286Z,9.18
2023-02-28T19:55:00.922Z,9.82
2023-02-28T19:57:27.408Z,8.55
2023-02-28T19:59:53.858Z,6.32
2023-02-28T20:02:21.831Z,7.95
2023-02-28T20:04:49.734Z,6.82
2023-02-28T20:07:17.919Z,5.70
2023-02-28T20:09:45.572Z,10.27
2023-02-28T20:12:23.454Z,10.43
2023-02-28T20:14:51.178Z,10.25
2023-02-28T20:17:17.631Z,8.55
2023-02-28T20:19:44.641Z,9.30
2023-02-28T20:22:11.153Z,11.38
2023-02-28T20:24:37.663Z,9.60
2023-02-28T20:27:04.465Z,16.95
2023-02-28T20:29:31.072Z,22.02
2023-02-28T20:31:57.832Z,12.25
2023-02-28T20:34:25.188Z,10.95
2023-02-28T20:36:51.895Z,14.90
2023-02-28T20:39:18.684Z,8.63
2023-02-28T20:41:45.159Z,9.85
2023-02-28T20:44:13.463Z,8.52
2023-02-28T20:46:41.332Z,6.03
2023-02-28T20:49:07.823Z,7.70
2023-02-28T20:51:34.357Z,6.68
2023-02-28T20:54:00.795Z,7.75
2023-02-28T20:56:27.377Z,18.80
2023-02-28T20:58:56.247Z,11.90
2023-02-28T21:01:28.312Z,10.75
2023-02-28T21:03:57.226Z,9.10
2023-02-28T21:06:26.879Z,10.32
2023-02-28T21:08:53.453Z,10.60
2023-02-28T21:11:24.119Z,9.93
2023-02-28T21:13:54.333Z,9.85
2023-02-28T21:16:23.469Z,7.60
2023-02-28T21:18:50.170Z,10.52
2023-02-28T21:21:19.627Z,11.27
2023-02-28T21:23:47.223Z,20.15
2023-02-28T21:26:17.028Z,11.85
2023-02-28T21:28:46.280Z,12.77
2023-02-28T21:31:16.388Z,16.08
2023-02-28T21:33:43.756Z,11.85
2023-02-28T21:36:11.656Z,6.35
2023-02-28T21:38:39.232Z,15.60
2023-02-28T21:41:19.551Z,13.45
2023-02-28T21:43:47.047Z,12.05
2023-02-28T21:46:17.027Z,9.63
2023-02-28T21:48:43.839Z,8.80
2023-02-28T21:51:15.665Z,17.10
2023-02-28T21:53:43.285Z,8.52
2023-02-28T21:56:17.341Z,11.68
2023-02-28T21:58:43.984Z,10.23
2023-02-28T22:01:13.428Z,23.80
2023-02-28T22:03:39.921Z,18.52
2023-02-28T22:06:36.611Z,13.35
2023-02-28T22:09:08.673Z,11.90
2023-02-28T22:11:37.397Z,11.98
2023-02-28T22:14:04.087Z,14.60
2023-02-28T22:16:44.200Z,10.90
2023-02-28T22:19:17.258Z,7.35
2023-02-28T22:21:44.917Z,11.38
2023-02-28T22:24:11.492Z,10.23
2023-02-28T22:26:38.151Z,11.20
2023-02-28T22:29:04.849Z,13.82
2023-02-28T22:31:32.903Z,9.05
2023-02-28T22:34:02.331Z,11.50
2023-02-28T22:36:30.290Z,10.25
2023-02-28T22:39:00.594Z,8.38
2023-02-28T22:41:28.074Z,9.93
2023-02-28T22:43:57.538Z,8.25
2023-02-28T22:46:25.485Z,9.20
2023-02-28T22:48:52.216Z,11.48
2023-02-28T22:51:24.007Z,12.05
2023-02-28T22:53:51.691Z,10.95
2023-02-28T22:56:21.037Z,11.45
2023-02-28T22:58:56.400Z,6.28
2023-02-28T23:01:25.509Z,8.32
2023-02-28T23:03:52.736Z,6.13
2023-02-28T23:06:31.893Z,10.43
2023-02-28T23:09:01.788Z,5.70
2023-02-28T23:11:38.207Z,7.38
2023-02-28T23:14:05.096Z,7.18
2023-02-28T23:16:44.285Z,6.65
2023-02-28T23:19:19.186Z,10.88
2023-02-28T23:21:46.698Z,8.38
2023-02-28T23:24:15.738Z,11.30
2023-02-28T23:26:48.926Z,9.80
2023-02-28T23:29:17.579Z,9.48
2023-02-28T23:31:45.139Z,9.93
2023-02-28T23:34:12.429Z,9.32
2023-02-28T23:36:45.864Z,11.32
2023-02-28T23:39:15.797Z,9.93
2023-02-28T23:41:42.318Z,10.30
2023-02-28T23:44:13.530Z,11.82
2023-02-28T23:46:40.455Z,6.65
2023-02-28T23:49:06.881Z,6.32
2023-02-28T23:51:33.330Z,8.60
2023-02-28T23:53:59.737Z,7.55
2023-02-28T23:56:26.186Z,7.03
2023-02-28T23:58:54.685Z,5.75
